Time;durP1;ratioP1;P1;durP2;ratioP2;P2;SDS_P1;SDS_P2;PMS_P1;PMS_P2;Temp;Humidity;BMP_temperature;BMP_pressure;BME280_temperature;BME280_humidity;BME280_pressure;Samples;Min_cycle;Max_cycle;Signal;HPM_P1;HPM_P2
2022/07/05 00:02:02;;;;;;;13.40;10.55;;;;;;;;;;4989227;28;20034;-64
2022/07/05 00:04:27;;;;;;;10.45;9.15;;;;;;;;;;4990387;28;20041;-65
2022/07/05 00:09:36;;;;;;;9.52;8.52;;;;;;;;;;4989828;28;20124;-65
2022/07/05 00:12:02;;;;;;;9.70;8.68;;;;;;;;;;4990504;28;20026;-65
2022/07/05 00:14:27;;;;;;;9.57;8.60;;;;;;;;;;4992840;28;20026;-66
2022/07/05 00:16:52;;;;;;;9.60;8.80;;;;;;;;;;4989183;28;20519;-66
2022/07/05 00:19:18;;;;;;;10.38;7.38;;;;;;;;;;4988893;28;20278;-65
2022/07/05 00:21:43;;;;;;;9.13;8.43;;;;;;;;;;4989684;28;20033;-66
2022/07/05 00:24:08;;;;;;;9.23;8.23;;;;;;;;;;4989861;28;20026;-65
2022/07/05 00:26:33;;;;;;;8.75;7.95;;;;;;;;;;4990201;28;20389;-68
2022/07/05 00:28:59;;;;;;;9.50;8.52;;;;;;;;;;4989150;28;20069;-65
2022/07/05 00:31:24;;;;;;;12.32;8.13;;;;;;;;;;4990933;28;20036;-66
2022/07/05 00:33:49;;;;;;;8.38;7.72;;;;;;;;;;4988400;28;20033;-65
2022/07/05 00:36:14;;;;;;;9.52;8.63;;;;;;;;;;4990255;28;20109;-65
2022/07/05 00:38:40;;;;;;;8.35;7.43;;;;;;;;;;4990786;28;20058;-65
2022/07/05 00:41:05;;;;;;;9.68;8.77;;;;;;;;;;4986151;28;20395;-65
2022/07/05 00:43:30;;;;;;;10.73;9.82;;;;;;;;;;4987423;28;20026;-65
2022/07/05 00:45:55;;;;;;;11.00;9.90;;;;;;;;;;4989381;28;20096;-64
2022/07/05 00:48:21;;;;;;;10.65;9.50;;;;;;;;;;4990184;28;20066;-64
2022/07/05 00:50:46;;;;;;;10.70;9.43;;;;;;;;;;4988604;28;20499;-64
2022/07/05 00:53:12;;;;;;;11.02;10.13;;;;;;;;;;4989330;28;20038;-64
2022/07/05 00:55:37;;;;;;;11.40;8.95;;;;;;;;;;4990006;28;20468;-65
2022/07/05 00:58:02;;;;;;;11.48;10.48;;;;;;;;;;4989946;28;20476;-65
2022/07/05 01:00:28;;;;;;;8.98;7.68;;;;;;;;;;4988439;28;20563;-65
2022/07/05 01:02:53;;;;;;;8.27;7.57;;;;;;;;;;4988110;28;20122;-65
2022/07/05 01:05:19;;;;;;;9.65;6.85;;;;;;;;;;4989123;28;20038;-65
2022/07/05 01:07:44;;;;;;;7.35;6.60;;;;;;;;;;4988953;28;20481;-65
2022/07/05 01:10:09;;;;;;;6.82;6.20;;;;;;;;;;4988424;28;20058;-65
2022/07/05 01:12:37;;;;;;;7.70;7.00;;;;;;;;;;4986238;28;20547;-65
2022/07/05 01:15:02;;;;;;;7.00;6.32;;;;;;;;;;4986399;28;20473;-65
2022/07/05 01:17:27;;;;;;;7.07;6.45;;;;;;;;;;4987674;28;20058;-64
2022/07/05 01:19:53;;;;;;;7.22;6.63;;;;;;;;;;4989066;28;20057;-65
2022/07/05 01:22:19;;;;;;;8.27;7.38;;;;;;;;;;4988031;28;20038;-64
2022/07/05 01:24:49;;;;;;;6.88;6.28;;;;;;;;;;4987516;28;20053;-65
2022/07/05 01:27:15;;;;;;;6.97;6.47;;;;;;;;;;4989802;28;20054;-65
2022/07/05 01:29:41;;;;;;;6.45;5.95;;;;;;;;;;4987826;28;20101;-65
2022/07/05 01:32:06;;;;;;;7.60;7.00;;;;;;;;;;4987894;28;20439;-65
2022/07/05 01:34:31;;;;;;;5.75;5.28;;;;;;;;;;4987309;28;20030;-65
2022/07/05 01:36:57;;;;;;;6.07;5.63;;;;;;;;;;4988530;28;20847;-65
2022/07/05 01:39:22;;;;;;;8.43;5.65;;;;;;;;;;4988066;28;20106;-64
2022/07/05 01:41:48;;;;;;;6.63;6.07;;;;;;;;;;4987909;28;20077;-65
2022/07/05 01:44:13;;;;;;;6.45;5.95;;;;;;;;;;4986331;28;20499;-65
2022/07/05 01:46:39;;;;;;;5.80;5.40;;;;;;;;;;4988525;28;20038;-65
2022/07/05 01:49:06;;;;;;;6.70;6.10;;;;;;;;;;4989271;28;20064;-64
2022/07/05 01:51:58;;;;;;;6.88;6.38;;;;;;;;;;4986092;28;20142;-64
2022/07/05 01:54:23;;;;;;;6.03;5.53;;;;;;;;;;4983947;28;20525;-65
2022/07/05 01:56:49;;;;;;;6.95;6.45;;;;;;;;;;4988824;28;20538;-65
2022/07/05 01:59:14;;;;;;;7.65;6.85;;;;;;;;;;4993087;28;20089;-66
2022/07/05 02:01:40;;;;;;;6.72;6.15;;;;;;;;;;4990161;28;20100;-65
2022/07/05 02:04:06;;;;;;;7.55;6.85;;;;;;;;;;4990858;28;20030;-66
2022/07/05 02:06:32;;;;;;;6.57;5.97;;;;;;;;;;4990313;28;20134;-65
2022/07/05 02:08:57;;;;;;;6.45;5.85;;;;;;;;;;4992413;28;20046;-66
2022/07/05 02:11:23;;;;;;;6.55;5.97;;;;;;;;;;4991872;28;20022;-65
2022/07/05 02:13:48;;;;;;;5.63;4.88;;;;;;;;;;4990189;28;20450;-65
2022/07/05 02:16:13;;;;;;;6.30;5.72;;;;;;;;;;4990658;28;20072;-65
2022/07/05 02:18:38;;;;;;;6.57;5.90;;;;;;;;;;4989764;28;20049;-65
2022/07/05 02:21:04;;;;;;;5.50;4.90;;;;;;;;;;4989424;28;20026;-65
2022/07/05 02:23:29;;;;;;;6.88;5.30;;;;;;;;;;4988852;28;20073;-65
2022/07/05 02:25:54;;;;;;;5.57;5.07;;;;;;;;;;4988911;28;20026;-66
2022/07/05 02:28:20;;;;;;;5.82;5.18;;;;;;;;;;4988501;28;20112;-65
2022/07/05 02:30:45;;;;;;;5.65;4.82;;;;;;;;;;4988437;28;20030;-65
2022/07/05 02:33:11;;;;;;;6.07;4.63;;;;;;;;;;4987373;28;20038;-66
2022/07/05 02:35:36;;;;;;;6.93;5.20;;;;;;;;;;4987748;28;20194;-65
2022/07/05 02:38:02;;;;;;;5.03;4.40;;;;;;;;;;4988860;28;20491;-65
2022/07/05 02:40:28;;;;;;;5.50;4.50;;;;;;;;;;4990829;28;20021;-65
2022/07/05 02:42:53;;;;;;;5.25;4.38;;;;;;;;;;4988603;28;20026;-65
2022/07/05 02:45:18;;;;;;;5.68;4.65;;;;;;;;;;4986821;28;20044;-65
2022/07/05 02:47:43;;;;;;;5.28;4.60;;;;;;;;;;4987924;28;20656;-65
2022/07/05 02:50:09;;;;;;;5.35;4.95;;;;;;;;;;4987402;28;20062;-65
2022/07/05 02:52:35;;;;;;;7.45;4.90;;;;;;;;;;4986890;28;20038;-65
2022/07/05 02:55:00;;;;;;;6.63;5.85;;;;;;;;;;4991362;28;20041;-65
2022/07/05 02:57:25;;;;;;;5.47;5.10;;;;;;;;;;4992593;28;20905;-65
2022/07/05 02:59:57;;;;;;;4.90;4.57;;;;;;;;;;4990195;28;20129;-65
2022/07/05 03:02:22;;;;;;;5.72;5.22;;;;;;;;;;4992678;28;20065;-65
2022/07/05 03:04:48;;;;;;;5.93;5.53;;;;;;;;;;4991187;28;20064;-65
2022/07/05 03:07:13;;;;;;;5.38;4.97;;;;;;;;;;4991045;28;20452;-65
2022/07/05 03:09:38;;;;;;;5.30;4.60;;;;;;;;;;4991828;28;20054;-65
2022/07/05 03:12:04;;;;;;;5.43;5.03;;;;;;;;;;5007179;28;20026;-65
2022/07/05 03:14:29;;;;;;;4.43;3.97;;;;;;;;;;5007163;28;20053;-65
2022/07/05 03:16:54;;;;;;;4.20;3.80;;;;;;;;;;4990787;28;20029;-66
2022/07/05 03:19:20;;;;;;;5.70;3.90;;;;;;;;;;4991554;28;20579;-65
2022/07/05 03:21:45;;;;;;;5.90;4.03;;;;;;;;;;4992071;28;20420;-65
2022/07/05 03:24:10;;;;;;;4.68;4.25;;;;;;;;;;4991345;28;20047;-65
2022/07/05 03:26:35;;;;;;;4.57;4.13;;;;;;;;;;4990932;28;20029;-65
2022/07/05 03:29:01;;;;;;;7.28;4.22;;;;;;;;;;4990651;28;20090;-67
2022/07/05 03:31:26;;;;;;;4.97;4.15;;;;;;;;;;4982093;28;20587;-65
2022/07/05 03:33:51;;;;;;;3.88;3.58;;;;;;;;;;4990342;28;20034;-65
2022/07/05 03:36:16;;;;;;;4.88;4.47;;;;;;;;;;4991413;28;20030;-65
2022/07/05 03:38:42;;;;;;;5.15;4.10;;;;;;;;;;4989773;28;20054;-64
2022/07/05 03:41:07;;;;;;;4.28;3.88;;;;;;;;;;4990456;28;20400;-65
2022/07/05 03:43:32;;;;;;;4.00;3.70;;;;;;;;;;4990184;28;20030;-65
2022/07/05 03:45:57;;;;;;;7.13;4.25;;;;;;;;;;4992031;28;20068;-65
2022/07/05 03:48:23;;;;;;;3.85;3.55;;;;;;;;;;4990009;28;20670;-65
2022/07/05 03:50:48;;;;;;;5.32;4.20;;;;;;;;;;4989710;28;20030;-65
2022/07/05 03:53:14;;;;;;;4.45;4.15;;;;;;;;;;5004916;28;20068;-65
2022/07/05 03:55:40;;;;;;;4.80;4.22;;;;;;;;;;4991448;28;20377;-65
2022/07/05 03:58:05;;;;;;;4.00;3.80;;;;;;;;;;4989069;28;20026;-65
2022/07/05 04:00:31;;;;;;;4.57;4.15;;;;;;;;;;4990044;28;20049;-65
2022/07/05 04:02:56;;;;;;;4.80;4.40;;;;;;;;;;4990262;28;20030;-65
2022/07/05 04:05:21;;;;;;;4.70;4.30;;;;;;;;;;4990969;28;20026;-65
2022/07/05 04:07:50;;;;;;;5.13;4.72;;;;;;;;;;4990918;28;20032;-66
2022/07/05 04:10:16;;;;;;;4.55;4.25;;;;;;;;;;4991008;28;20086;-65
2022/07/05 04:12:43;;;;;;;4.88;4.43;;;;;;;;;;4991689;28;20030;-65
2022/07/05 04:15:09;;;;;;;4.60;4.25;;;;;;;;;;4989834;28;20037;-65
2022/07/05 04:17:34;;;;;;;5.22;4.82;;;;;;;;;;4989532;28;20101;-65
2022/07/05 04:19:59;;;;;;;5.82;4.38;;;;;;;;;;4989401;28;20030;-65
2022/07/05 04:22:25;;;;;;;4.68;4.28;;;;;;;;;;4988769;28;20565;-65
2022/07/05 04:27:33;;;;;;;4.65;4.35;;;;;;;;;;4990718;28;20045;-65
2022/07/05 04:29:59;;;;;;;4.53;4.22;;;;;;;;;;4989629;28;20031;-65
2022/07/05 04:32:24;;;;;;;4.20;3.97;;;;;;;;;;4990902;28;20039;-65
2022/07/05 04:34:49;;;;;;;5.03;4.47;;;;;;;;;;4989562;28;20038;-65
2022/07/05 04:37:15;;;;;;;7.45;5.47;;;;;;;;;;4989905;28;20320;-65
2022/07/05 04:39:40;;;;;;;4.78;4.38;;;;;;;;;;4988634;28;20036;-65
2022/07/05 04:42:06;;;;;;;6.20;4.30;;;;;;;;;;4989366;28;20022;-65
2022/07/05 04:44:31;;;;;;;4.68;4.07;;;;;;;;;;4990867;28;20036;-65
2022/07/05 04:46:56;;;;;;;5.93;5.10;;;;;;;;;;4988173;28;20038;-66
2022/07/05 04:49:24;;;;;;;4.38;4.07;;;;;;;;;;5005837;28;20026;-65
2022/07/05 04:51:49;;;;;;;5.07;4.57;;;;;;;;;;4989862;28;20484;-66
2022/07/05 04:54:17;;;;;;;4.90;4.50;;;;;;;;;;4989825;28;20118;-65
2022/07/05 04:56:42;;;;;;;4.57;4.18;;;;;;;;;;4987292;28;20026;-65
2022/07/05 04:59:08;;;;;;;5.70;5.10;;;;;;;;;;4988238;28;20046;-65
2022/07/05 05:01:33;;;;;;;4.47;4.07;;;;;;;;;;4991043;28;20030;-65
2022/07/05 05:03:58;;;;;;;5.15;4.50;;;;;;;;;;4990057;28;20042;-65
2022/07/05 05:06:23;;;;;;;5.28;4.78;;;;;;;;;;4987581;28;20151;-65
2022/07/05 05:08:48;;;;;;;4.95;3.95;;;;;;;;;;4988272;28;20149;-66
2022/07/05 05:11:14;;;;;;;6.22;5.20;;;;;;;;;;4988669;28;20141;-65
2022/07/05 05:13:39;;;;;;;5.82;5.28;;;;;;;;;;4987817;28;20168;-65
2022/07/05 05:16:05;;;;;;;8.23;6.20;;;;;;;;;;4988806;28;20038;-66
2022/07/05 05:18:30;;;;;;;7.25;6.03;;;;;;;;;;4986665;28;20030;-65
2022/07/05 05:20:55;;;;;;;5.78;5.38;;;;;;;;;;4988490;28;20034;-66
2022/07/05 05:23:21;;;;;;;6.38;5.78;;;;;;;;;;4988793;28;20149;-66
2022/07/05 05:25:47;;;;;;;8.32;6.82;;;;;;;;;;4988672;28;20113;-65
2022/07/05 05:28:12;;;;;;;8.93;6.72;;;;;;;;;;4988113;28;20032;-65
2022/07/05 05:30:37;;;;;;;6.57;5.97;;;;;;;;;;4988783;28;20038;-66
2022/07/05 05:33:02;;;;;;;7.80;6.80;;;;;;;;;;4987943;28;20062;-65
2022/07/05 05:35:27;;;;;;;7.25;6.55;;;;;;;;;;4985889;28;20054;-65
2022/07/05 05:37:54;;;;;;;6.72;6.05;;;;;;;;;;4989279;28;20464;-65
2022/07/05 05:40:20;;;;;;;6.63;6.00;;;;;;;;;;4988309;28;20066;-65
2022/07/05 05:42:45;;;;;;;8.05;7.25;;;;;;;;;;4988189;28;20039;-65
2022/07/05 05:45:11;;;;;;;8.85;6.88;;;;;;;;;;4986673;28;20030;-64
2022/07/05 05:47:46;;;;;;;8.40;7.60;;;;;;;;;;4986850;28;20494;-65
2022/07/05 05:50:11;;;;;;;8.90;7.97;;;;;;;;;;4987148;28;20026;-65
2022/07/05 05:52:36;;;;;;;8.68;7.53;;;;;;;;;;4985771;28;20041;-65
2022/07/05 05:55:01;;;;;;;8.40;7.60;;;;;;;;;;4986609;28;20079;-65
2022/07/05 05:57:27;;;;;;;7.53;6.82;;;;;;;;;;4989318;28;20121;-65
2022/07/05 05:59:52;;;;;;;8.13;7.32;;;;;;;;;;4986626;28;20034;-65
2022/07/05 06:02:17;;;;;;;7.70;7.10;;;;;;;;;;4986935;28;20031;-65
2022/07/05 06:04:42;;;;;;;9.48;8.05;;;;;;;;;;4987403;28;20092;-64
2022/07/05 06:07:08;;;;;;;10.02;8.52;;;;;;;;;;4987896;28;20022;-64
2022/07/05 06:09:33;;;;;;;13.30;8.98;;;;;;;;;;4987020;28;20062;-64
2022/07/05 06:11:58;;;;;;;8.45;7.57;;;;;;;;;;4984665;28;20141;-63
2022/07/05 06:14:23;;;;;;;7.93;7.18;;;;;;;;;;4967117;28;20366;-63
2022/07/05 06:16:48;;;;;;;8.80;8.00;;;;;;;;;;4984740;28;20046;-63
2022/07/05 06:19:14;;;;;;;10.00;8.50;;;;;;;;;;4984532;28;20472;-63
2022/07/05 06:21:39;;;;;;;8.60;7.65;;;;;;;;;;4983346;28;20050;-62
2022/07/05 06:24:04;;;;;;;10.60;9.38;;;;;;;;;;4984870;28;20405;-62
2022/07/05 06:26:30;;;;;;;11.10;9.85;;;;;;;;;;4984951;28;20133;-63
2022/07/05 06:28:55;;;;;;;10.93;9.95;;;;;;;;;;4986150;28;20491;-63
2022/07/05 06:31:20;;;;;;;9.77;8.98;;;;;;;;;;4988924;28;20384;-62
2022/07/05 06:33:45;;;;;;;10.55;7.93;;;;;;;;;;4989061;28;20030;-63
2022/07/05 06:36:11;;;;;;;8.77;6.30;;;;;;;;;;4988250;28;20042;-63
2022/07/05 06:38:36;;;;;;;9.20;6.57;;;;;;;;;;4970761;28;20352;-62
2022/07/05 06:41:01;;;;;;;7.68;7.05;;;;;;;;;;4988357;28;20477;-63
2022/07/05 06:43:26;;;;;;;7.03;6.45;;;;;;;;;;4988413;28;20127;-63
2022/07/05 06:45:52;;;;;;;6.18;5.78;;;;;;;;;;4988864;28;20041;-63
2022/07/05 06:48:18;;;;;;;5.95;5.55;;;;;;;;;;4988551;28;20129;-63
2022/07/05 06:50:43;;;;;;;5.60;5.20;;;;;;;;;;4988346;28;20110;-63
2022/07/05 06:53:09;;;;;;;8.95;5.28;;;;;;;;;;4988384;28;20034;-63
2022/07/05 06:55:34;;;;;;;6.32;5.70;;;;;;;;;;4987966;28;20033;-62
2022/07/05 06:58:04;;;;;;;6.80;6.30;;;;;;;;;;4988589;28;20030;-63
2022/07/05 07:00:30;;;;;;;8.07;7.40;;;;;;;;;;4988303;28;20574;-63
2022/07/05 07:02:56;;;;;;;7.85;7.15;;;;;;;;;;4987878;28;20576;-63
2022/07/05 07:05:21;;;;;;;8.45;7.68;;;;;;;;;;4973242;28;20030;-63
2022/07/05 07:10:30;;;;;;;9.18;8.20;;;;;;;;;;4987660;28;20066;-63
2022/07/05 07:12:57;;;;;;;7.35;6.72;;;;;;;;;;4986604;28;20673;-64
2022/07/05 07:15:22;;;;;;;7.65;7.05;;;;;;;;;;4988117;28;20129;-63
2022/07/05 07:17:48;;;;;;;6.47;5.75;;;;;;;;;;4987727;28;20026;-64
2022/07/05 07:20:13;;;;;;;6.38;5.88;;;;;;;;;;4988331;28;20030;-62
2022/07/05 07:22:38;;;;;;;6.18;5.75;;;;;;;;;;4987189;28;20038;-63
2022/07/05 07:25:05;;;;;;;6.45;5.85;;;;;;;;;;4987853;28;20105;-63
2022/07/05 07:27:30;;;;;;;4.57;4.28;;;;;;;;;;4986909;28;20773;-63
2022/07/05 07:29:55;;;;;;;4.85;4.55;;;;;;;;;;4987781;28;20022;-63
2022/07/05 07:32:21;;;;;;;4.20;3.97;;;;;;;;;;4987295;28;20038;-63
2022/07/05 07:34:46;;;;;;;3.72;3.40;;;;;;;;;;4987418;28;20213;-63
2022/07/05 07:37:13;;;;;;;3.70;3.30;;;;;;;;;;4985858;28;20072;-63
2022/07/05 07:39:39;;;;;;;3.17;2.90;;;;;;;;;;4987097;28;20085;-63
2022/07/05 07:42:05;;;;;;;3.47;3.28;;;;;;;;;;4985204;28;20401;-63
2022/07/05 07:44:30;;;;;;;3.33;3.13;;;;;;;;;;4987510;28;20034;-63
2022/07/05 07:46:55;;;;;;;3.85;3.40;;;;;;;;;;4986965;28;20378;-64
2022/07/05 07:49:20;;;;;;;2.78;2.67;;;;;;;;;;4987013;28;20038;-64
2022/07/05 07:51:46;;;;;;;2.80;2.70;;;;;;;;;;4987538;28;20034;-64
2022/07/05 07:54:11;;;;;;;2.75;2.50;;;;;;;;;;4960753;28;20034;-65
2022/07/05 07:56:36;;;;;;;2.97;2.00;;;;;;;;;;4969398;28;20030;-65
2022/07/05 07:59:02;;;;;;;2.60;2.10;;;;;;;;;;4987140;28;20778;-65
2022/07/05 08:01:27;;;;;;;2.97;2.28;;;;;;;;;;4987229;28;20049;-64
2022/07/05 08:03:52;;;;;;;2.50;2.30;;;;;;;;;;4964368;28;20173;-65
2022/07/05 08:06:17;;;;;;;2.28;2.17;;;;;;;;;;4987072;28;20392;-65
2022/07/05 08:08:47;;;;;;;2.45;2.33;;;;;;;;;;4986744;28;20357;-65
2022/07/05 08:11:12;;;;;;;3.00;2.50;;;;;;;;;;5005258;28;20065;-64
2022/07/05 08:13:39;;;;;;;2.67;2.45;;;;;;;;;;4990067;28;20121;-66
2022/07/05 08:16:04;;;;;;;2.22;1.60;;;;;;;;;;4989980;28;20034;-65
2022/07/05 08:21:31;;;;;;;1.20;1.20;;;;;;;;;;4990860;28;20049;-65
2022/07/05 08:24:04;;;;;;;1.58;1.48;;;;;;;;;;4990028;28;20034;-65
2022/07/05 08:26:32;;;;;;;1.45;1.10;;;;;;;;;;4988944;28;20034;-65
2022/07/05 08:28:58;;;;;;;0.90;0.90;;;;;;;;;;4989794;28;20089;-65
2022/07/05 08:31:25;;;;;;;1.05;1.05;;;;;;;;;;4990044;28;20204;-66
2022/07/05 08:33:50;;;;;;;1.02;1.02;;;;;;;;;;4988187;28;20041;-66
2022/07/05 08:36:15;;;;;;;1.00;1.00;;;;;;;;;;4988953;28;20026;-64
2022/07/05 08:38:40;;;;;;;1.23;0.90;;;;;;;;;;4989165;28;20037;-65
2022/07/05 08:41:07;;;;;;;0.82;0.82;;;;;;;;;;4990512;28;20141;-65
2022/07/05 08:43:33;;;;;;;0.82;0.80;;;;;;;;;;4988030;28;20022;-66
2022/07/05 08:45:59;;;;;;;0.90;0.90;;;;;;;;;;4990275;28;20066;-65
2022/07/05 08:48:26;;;;;;;0.90;0.90;;;;;;;;;;4990063;28;20030;-66
2022/07/05 08:50:52;;;;;;;4.05;1.20;;;;;;;;;;4989135;28;20823;-64
2022/07/05 08:53:21;;;;;;;1.20;1.10;;;;;;;;;;4988661;28;20077;-64
2022/07/05 08:55:46;;;;;;;1.08;1.08;;;;;;;;;;4988851;28;20440;-65
2022/07/05 08:58:12;;;;;;;1.17;1.17;;;;;;;;;;4987321;28;20038;-65
2022/07/05 09:00:38;;;;;;;1.33;1.33;;;;;;;;;;4987415;28;20042;-66
2022/07/05 09:03:04;;;;;;;1.40;1.30;;;;;;;;;;4990022;28;20045;-64
2022/07/05 09:05:30;;;;;;;1.45;1.40;;;;;;;;;;4988828;28;20026;-64
2022/07/05 09:07:58;;;;;;;1.40;1.30;;;;;;;;;;4989083;28;20033;-65
2022/07/05 09:10:25;;;;;;;1.67;1.63;;;;;;;;;;4988906;28;20054;-65
2022/07/05 09:12:51;;;;;;;1.80;1.70;;;;;;;;;;4989910;28;20042;-65
2022/07/05 09:15:16;;;;;;;1.98;1.95;;;;;;;;;;4989510;28;20037;-64
2022/07/05 09:17:42;;;;;;;2.20;2.03;;;;;;;;;;4988516;28;20065;-66
2022/07/05 09:20:12;;;;;;;2.35;2.25;;;;;;;;;;4987692;28;20140;-65
2022/07/05 09:22:44;;;;;;;3.05;2.20;;;;;;;;;;4989378;28;20049;-64
2022/07/05 09:25:16;;;;;;;2.40;2.30;;;;;;;;;;4988491;28;20081;-64
2022/07/05 09:28:02;;;;;;;2.60;2.30;;;;;;;;;;4989202;28;20066;-65
2022/07/05 09:30:33;;;;;;;2.47;2.38;;;;;;;;;;4989668;28;20042;-64
2022/07/05 09:33:02;;;;;;;2.97;2.78;;;;;;;;;;4989664;28;20038;-65
2022/07/05 09:35:28;;;;;;;2.42;2.33;;;;;;;;;;4988705;28;20041;-64
2022/07/05 09:37:53;;;;;;;3.80;2.63;;;;;;;;;;4987772;28;20378;-64
2022/07/05 09:40:18;;;;;;;3.10;2.90;;;;;;;;;;4989160;28;20030;-64
2022/07/05 09:42:44;;;;;;;2.85;2.65;;;;;;;;;;4988259;28;20029;-64
2022/07/05 09:45:09;;;;;;;2.80;2.60;;;;;;;;;;4988182;28;20038;-64
2022/07/05 09:47:34;;;;;;;2.70;2.50;;;;;;;;;;4979472;28;20264;-65
2022/07/05 09:50:03;;;;;;;3.20;2.95;;;;;;;;;;4988101;28;20487;-65
2022/07/05 09:52:30;;;;;;;3.05;2.85;;;;;;;;;;4987186;28;20445;-65
2022/07/05 09:55:09;;;;;;;2.70;2.60;;;;;;;;;;4988731;28;20029;-65
2022/07/05 09:57:35;;;;;;;2.72;2.63;;;;;;;;;;4988037;28;20031;-65
2022/07/05 10:00:03;;;;;;;2.63;2.42;;;;;;;;;;4987004;28;20035;-64
2022/07/05 10:02:34;;;;;;;3.00;2.80;;;;;;;;;;4988106;28;20585;-65
2022/07/05 10:05:13;;;;;;;3.03;2.83;;;;;;;;;;4987857;28;20041;-64
2022/07/05 10:07:40;;;;;;;2.75;2.63;;;;;;;;;;4988308;28;20116;-64
2022/07/05 10:10:06;;;;;;;3.03;2.83;;;;;;;;;;4989139;28;20146;-64
2022/07/05 10:12:34;;;;;;;3.03;2.83;;;;;;;;;;4987789;28;20034;-64
2022/07/05 10:14:59;;;;;;;2.97;2.70;;;;;;;;;;4990405;28;20030;-63
2022/07/05 10:17:27;;;;;;;3.53;2.80;;;;;;;;;;4988969;28;20084;-63
2022/07/05 10:19:54;;;;;;;2.70;2.50;;;;;;;;;;4988584;28;20033;-64
2022/07/05 10:22:19;;;;;;;2.50;2.30;;;;;;;;;;4986287;28;20072;-64
2022/07/05 10:24:45;;;;;;;3.05;2.75;;;;;;;;;;4987800;28;20069;-65
2022/07/05 10:27:10;;;;;;;2.80;2.70;;;;;;;;;;4987560;28;20026;-64
2022/07/05 10:29:36;;;;;;;2.88;2.75;;;;;;;;;;4988006;28;20042;-64
2022/07/05 10:32:03;;;;;;;3.10;2.80;;;;;;;;;;4987892;28;20610;-64
2022/07/05 10:34:28;;;;;;;2.30;2.17;;;;;;;;;;4988436;28;20044;-64
2022/07/05 10:36:54;;;;;;;2.95;2.80;;;;;;;;;;4987067;28;20030;-64
2022/07/05 10:39:23;;;;;;;2.95;2.75;;;;;;;;;;4988122;28;20148;-64
2022/07/05 10:41:48;;;;;;;2.90;2.58;;;;;;;;;;4986752;28;20042;-64
2022/07/05 10:44:25;;;;;;;3.78;2.67;;;;;;;;;;4987465;28;20171;-64
2022/07/05 10:46:50;;;;;;;2.60;2.50;;;;;;;;;;4987380;28;20045;-64
2022/07/05 10:49:17;;;;;;;2.42;2.33;;;;;;;;;;4988394;28;20030;-63
2022/07/05 10:51:43;;;;;;;3.08;2.90;;;;;;;;;;4987725;28;20034;-65
2022/07/05 10:54:08;;;;;;;2.70;2.60;;;;;;;;;;4986872;28;20369;-63
2022/07/05 10:56:33;;;;;;;2.83;2.63;;;;;;;;;;5002301;28;20034;-64
2022/07/05 10:59:07;;;;;;;2.80;2.60;;;;;;;;;;4988385;28;20504;-64
2022/07/05 11:01:33;;;;;;;3.13;2.77;;;;;;;;;;4988611;28;20121;-65
2022/07/05 11:04:01;;;;;;;2.97;2.78;;;;;;;;;;4986813;28;20076;-66
2022/07/05 11:06:39;;;;;;;3.40;3.10;;;;;;;;;;4987242;28;20030;-65
2022/07/05 11:09:05;;;;;;;2.80;2.60;;;;;;;;;;4987235;28;20054;-65
2022/07/05 11:11:31;;;;;;;3.65;3.38;;;;;;;;;;4988880;28;20026;-65
2022/07/05 11:13:58;;;;;;;2.83;2.70;;;;;;;;;;4987745;28;20196;-65
2022/07/05 11:16:24;;;;;;;3.25;3.05;;;;;;;;;;4990682;28;20037;-64
2022/07/05 11:18:51;;;;;;;3.80;3.00;;;;;;;;;;4991037;28;20396;-65
2022/07/05 11:21:20;;;;;;;3.00;2.83;;;;;;;;;;4991002;28;20077;-65
2022/07/05 11:23:45;;;;;;;5.30;3.00;;;;;;;;;;4987320;28;20088;-65
2022/07/05 11:26:16;;;;;;;3.42;3.10;;;;;;;;;;4991027;28;20805;-65
2022/07/05 11:28:45;;;;;;;3.97;3.00;;;;;;;;;;4988282;28;20034;-65
2022/07/05 11:31:11;;;;;;;3.13;2.92;;;;;;;;;;4988032;28;20026;-65
2022/07/05 11:33:36;;;;;;;3.90;3.60;;;;;;;;;;4990865;28;20542;-65
2022/07/05 11:36:03;;;;;;;3.00;2.70;;;;;;;;;;4992787;28;20065;-65
2022/07/05 11:38:30;;;;;;;3.67;3.40;;;;;;;;;;4991109;28;20038;-65
2022/07/05 11:40:55;;;;;;;3.15;2.95;;;;;;;;;;4991475;28;20493;-65
2022/07/05 11:43:28;;;;;;;3.20;3.00;;;;;;;;;;4989574;28;20038;-64
2022/07/05 11:45:57;;;;;;;3.10;2.97;;;;;;;;;;4990180;28;20022;-65
2022/07/05 11:48:22;;;;;;;2.70;2.60;;;;;;;;;;4989451;28;20101;-65
2022/07/05 11:50:48;;;;;;;3.08;2.80;;;;;;;;;;5005167;28;20053;-65
2022/07/05 11:53:24;;;;;;;2.58;2.47;;;;;;;;;;4989782;28;20034;-65
2022/07/05 11:55:53;;;;;;;2.80;2.60;;;;;;;;;;4991493;28;20049;-64
2022/07/05 11:58:19;;;;;;;2.58;2.47;;;;;;;;;;4989494;28;20058;-64
2022/07/05 12:00:44;;;;;;;2.40;2.30;;;;;;;;;;4991886;28;20153;-65
2022/07/05 12:03:13;;;;;;;3.67;2.65;;;;;;;;;;4989224;28;20080;-64
2022/07/05 12:05:40;;;;;;;3.08;2.17;;;;;;;;;;4990481;28;20052;-64
2022/07/05 12:08:09;;;;;;;2.78;2.58;;;;;;;;;;4990927;28;20023;-64
2022/07/05 12:13:18;;;;;;;2.50;2.30;;;;;;;;;;4990488;28;20411;-65
2022/07/05 12:15:46;;;;;;;2.50;2.38;;;;;;;;;;4988755;28;20023;-64
2022/07/05 12:18:11;;;;;;;2.65;2.55;;;;;;;;;;4989584;28;20053;-65
2022/07/05 12:20:39;;;;;;;3.10;2.92;;;;;;;;;;4990842;28;20948;-66
2022/07/05 12:23:05;;;;;;;2.70;2.60;;;;;;;;;;4990090;28;20034;-66
2022/07/05 12:25:31;;;;;;;3.47;3.17;;;;;;;;;;4989716;28;20149;-65
2022/07/05 12:27:57;;;;;;;3.40;2.92;;;;;;;;;;4989710;28;20057;-66
2022/07/05 12:30:24;;;;;;;3.17;2.97;;;;;;;;;;4988603;28;20484;-66
2022/07/05 12:32:53;;;;;;;2.65;2.55;;;;;;;;;;4989702;28;20026;-66
2022/07/05 12:35:37;;;;;;;3.20;2.65;;;;;;;;;;4989709;28;20041;-66
2022/07/05 12:38:06;;;;;;;2.57;2.40;;;;;;;;;;4989198;28;20033;-68
2022/07/05 12:40:32;;;;;;;3.45;3.20;;;;;;;;;;4987640;28;20018;-65
2022/07/05 12:43:05;;;;;;;3.35;3.10;;;;;;;;;;4987708;28;20477;-65
2022/07/05 12:45:30;;;;;;;2.95;2.85;;;;;;;;;;4989370;28;20030;-66
2022/07/05 12:47:56;;;;;;;3.10;3.00;;;;;;;;;;4989885;28;20424;-65
2022/07/05 12:50:28;;;;;;;3.20;3.00;;;;;;;;;;5004828;28;20026;-65
2022/07/05 12:52:54;;;;;;;3.20;3.10;;;;;;;;;;4988980;28;20026;-65
2022/07/05 12:58:03;;;;;;;2.78;2.67;;;;;;;;;;4987765;28;20456;-65
2022/07/05 13:00:28;;;;;;;3.17;3.00;;;;;;;;;;4989083;28;20117;-65
2022/07/05 13:02:55;;;;;;;4.55;3.78;;;;;;;;;;4987738;28;20049;-65
2022/07/05 13:05:21;;;;;;;3.55;3.35;;;;;;;;;;4990295;28;20744;-65
2022/07/05 13:07:47;;;;;;;3.30;3.08;;;;;;;;;;4988824;28;20083;-65
2022/07/05 13:10:13;;;;;;;3.97;3.78;;;;;;;;;;4988061;28;20058;-65
2022/07/05 13:12:38;;;;;;;3.53;3.33;;;;;;;;;;4983549;28;20089;-64
2022/07/05 13:15:03;;;;;;;3.08;2.97;;;;;;;;;;4989410;28;20037;-64
2022/07/05 13:17:29;;;;;;;3.08;2.88;;;;;;;;;;4988812;28;20035;-64
2022/07/05 13:19:54;;;;;;;3.00;2.80;;;;;;;;;;4987923;28;20030;-64
2022/07/05 13:22:19;;;;;;;3.35;3.15;;;;;;;;;;4989590;28;20374;-64
2022/07/05 13:24:45;;;;;;;3.75;3.50;;;;;;;;;;4988907;28;20045;-64
2022/07/05 13:27:11;;;;;;;3.47;3.28;;;;;;;;;;4987803;28;20034;-64
2022/07/05 13:29:36;;;;;;;3.53;3.33;;;;;;;;;;4988604;28;20073;-63
2022/07/05 13:32:02;;;;;;;3.95;3.72;;;;;;;;;;4989394;28;20083;-65
2022/07/05 13:34:28;;;;;;;2.97;2.78;;;;;;;;;;4987884;28;20034;-65
2022/07/05 13:36:54;;;;;;;3.42;3.08;;;;;;;;;;4988191;28;20038;-64
2022/07/05 13:39:20;;;;;;;3.28;3.08;;;;;;;;;;4989135;28;20026;-64
2022/07/05 13:41:51;;;;;;;4.30;3.63;;;;;;;;;;4988088;28;20022;-67
2022/07/05 13:44:17;;;;;;;3.50;2.90;;;;;;;;;;4984183;28;20038;-64
2022/07/05 13:46:43;;;;;;;2.92;2.83;;;;;;;;;;4988278;28;20077;-66
2022/07/05 13:49:08;;;;;;;4.63;2.88;;;;;;;;;;4986766;28;20022;-65
2022/07/05 13:51:34;;;;;;;3.63;3.33;;;;;;;;;;4985509;28;20112;-65
2022/07/05 13:53:59;;;;;;;3.28;3.08;;;;;;;;;;4987780;28;20026;-65
2022/07/05 13:56:25;;;;;;;3.35;3.15;;;;;;;;;;4988426;28;20438;-65
2022/07/05 13:58:51;;;;;;;3.10;3.00;;;;;;;;;;4989491;28;20042;-65
2022/07/05 14:01:19;;;;;;;3.00;2.80;;;;;;;;;;4988142;28;20026;-66
2022/07/05 14:03:44;;;;;;;3.13;2.92;;;;;;;;;;4987726;28;20034;-65
2022/07/05 14:06:10;;;;;;;3.20;3.00;;;;;;;;;;4987726;28;20037;-67
2022/07/05 14:08:35;;;;;;;2.53;2.42;;;;;;;;;;4987608;28;20217;-66
2022/07/05 14:11:01;;;;;;;2.70;2.50;;;;;;;;;;4988049;28;20412;-65
2022/07/05 14:13:27;;;;;;;4.03;2.97;;;;;;;;;;4988020;28;20037;-64
2022/07/05 14:15:53;;;;;;;4.25;3.30;;;;;;;;;;5003196;28;20030;-65
2022/07/05 14:18:20;;;;;;;3.40;3.15;;;;;;;;;;4986559;28;20558;-65
2022/07/05 14:20:45;;;;;;;2.65;2.55;;;;;;;;;;5003990;28;20026;-64
2022/07/05 14:23:11;;;;;;;2.92;2.83;;;;;;;;;;4987748;28;20488;-65
2022/07/05 14:25:37;;;;;;;3.13;2.92;;;;;;;;;;4987717;28;20023;-65
2022/07/05 14:28:07;;;;;;;3.20;3.00;;;;;;;;;;4986676;28;20034;-66
2022/07/05 14:30:33;;;;;;;2.80;2.60;;;;;;;;;;4988063;28;20034;-65
2022/07/05 14:32:58;;;;;;;3.10;3.00;;;;;;;;;;4987353;28;20520;-64
2022/07/05 14:35:23;;;;;;;4.47;3.20;;;;;;;;;;4990753;28;20030;-65
2022/07/05 14:37:49;;;;;;;3.60;3.30;;;;;;;;;;4988135;28;20026;-64
2022/07/05 14:40:15;;;;;;;3.53;3.33;;;;;;;;;;4987188;28;20026;-65
2022/07/05 14:42:40;;;;;;;3.53;3.25;;;;;;;;;;4988276;28;20043;-65
2022/07/05 14:45:05;;;;;;;3.70;3.50;;;;;;;;;;4988029;28;20597;-65
2022/07/05 14:47:31;;;;;;;3.60;3.30;;;;;;;;;;4988697;28;20027;-65
2022/07/05 14:49:56;;;;;;;2.67;2.45;;;;;;;;;;4989630;28;20026;-65
2022/07/05 14:52:21;;;;;;;3.00;2.85;;;;;;;;;;5007675;28;20045;-65
2022/07/05 14:54:47;;;;;;;4.32;3.28;;;;;;;;;;4991920;28;20146;-64